CheckWX is a tool to help pilots better visualize weather data.  It is not intended as a substitute for an official pre-flight weather briefing.

20:17:50 UTC

KDCA METAR
Ronald Reagan Washington National Airport
Washington, Virginia, USA
Current

26 mins ago

KDCA 211952Z 16007KT 10SM FEW055 SCT090 BKN250 31/15 A3016 RMK AO2 SLP214 T03110150
Observed
Sep-21 @ 19:52 UTC
Wind
  • 160° at 7 KTS
Visibility
10 SM
Flight Rules
VFR
Cloud Levels
  • Few at 5,500' AGL
  • Scattered at 9,000' AGL
  • Broken at 25,000' AGL
Temperature
31°C / 88°F
Dewpoint
15°C / 59°F
Humidity
38%
Altimeter
30.16" Hg
Pressure
1021.32 hPa
Previous

1 hour ago

KDCA 211852Z 17008KT 10SM FEW050 SCT250 31/16 A3018 RMK AO2 SLP218 T03060161
Observed
Sep-21 @ 18:52 UTC
Wind
  • 170° at 8 KTS
Visibility
10 SM
Flight Rules
VFR
Cloud Levels
  • Few at 5,000' AGL
  • Scattered at 25,000' AGL
Temperature
31°C / 88°F
Dewpoint
16°C / 61°F
Heat Index
31°C / 88°F
Humidity
40%
Altimeter
30.18" Hg
Pressure
1022.02 hPa
Previous

2 hours ago

KDCA 211752Z 16008KT 10SM SCT250 29/16 A3020 RMK AO2 SLP225 T02940161 10300 20178 58021
Observed
Sep-21 @ 17:52 UTC
Wind
  • 160° at 8 KTS
Visibility
10 SM
Flight Rules
VFR
Cloud Levels
  • Scattered at 25,000' AGL
Temperature
29°C / 84°F
Dewpoint
16°C / 61°F
Heat Index
29°C / 84°F
Humidity
45%
Altimeter
30.2" Hg
Pressure
1022.72 hPa